Time;durP1;ratioP1;P1;durP2;ratioP2;P2;SDS_P1;SDS_P2;PMS_P1;PMS_P2;Temp;Humidity;BMP_temperature;BMP_pressure;BME280_temperature;BME280_humidity;BME280_pressure;Samples;Min_cycle;Max_cycle;Signal;HPM_P1;HPM_P2
2023/12/12 00:00:50;;;;;;;46.65;30.30;;;;;;;4.76;100.00;98130.19;5025423;28;20116;-71
2023/12/12 00:03:18;;;;;;;41.35;29.58;;;;;;;4.53;100.00;98118.28;5029015;28;20087;-72
2023/12/12 00:05:43;;;;;;;48.10;31.15;;;;;;;4.74;100.00;98114.00;4996498;28;20354;-67
2023/12/12 00:08:11;;;;;;;45.30;29.88;;;;;;;4.54;100.00;98071.78;5010354;28;20079;-68
2023/12/12 00:10:36;;;;;;;50.33;31.88;;;;;;;4.91;100.00;98127.31;5014375;28;20025;-70
2023/12/12 00:13:02;;;;;;;42.70;29.33;;;;;;;4.88;100.00;98099.25;4998905;28;20041;-69
2023/12/12 00:15:29;;;;;;;41.80;29.90;;;;;;;4.75;100.00;98092.47;4987709;28;20724;-68
2023/12/12 00:17:55;;;;;;;45.45;28.63;;;;;;;4.65;100.00;98093.31;5025870;28;20026;-69
2023/12/12 00:20:20;;;;;;;46.67;29.98;;;;;;;4.74;100.00;98075.38;4986795;28;20099;-69
2023/12/12 00:22:46;;;;;;;41.72;29.25;;;;;;;4.75;100.00;98077.03;5035134;28;20033;-69
2023/12/12 00:25:11;;;;;;;45.85;31.60;;;;;;;4.66;100.00;98074.34;5008640;28;20104;-69
2023/12/12 00:27:41;;;;;;;44.42;29.85;;;;;;;4.78;100.00;98087.09;5006768;28;20038;-70
2023/12/12 00:30:10;;;;;;;45.67;28.65;;;;;;;4.74;100.00;98077.94;4995343;28;20702;-70
2023/12/12 00:32:35;;;;;;;45.33;30.47;;;;;;;4.76;100.00;98047.75;5008506;28;20099;-68
2023/12/12 00:35:03;;;;;;;42.88;29.52;;;;;;;4.27;100.00;98004.44;4992299;28;21053;-70
2023/12/12 00:37:28;;;;;;;44.55;28.42;;;;;;;4.48;100.00;98063.72;5000690;28;20138;-67
2023/12/12 00:39:54;;;;;;;42.30;28.60;;;;;;;4.69;100.00;98076.66;4998857;28;20588;-71
2023/12/12 00:42:19;;;;;;;44.88;29.63;;;;;;;4.72;100.00;98073.88;4997217;28;20524;-70
2023/12/12 00:44:45;;;;;;;42.80;29.95;;;;;;;4.48;100.00;98020.78;5005490;28;20451;-72
2023/12/12 00:47:12;;;;;;;47.30;29.33;;;;;;;4.62;100.00;98076.34;5008799;28;20033;-68
2023/12/12 00:49:38;;;;;;;45.42;31.30;;;;;;;4.48;100.00;98074.84;5006326;28;20064;-71
2023/12/12 00:52:07;;;;;;;43.15;29.55;;;;;;;4.10;100.00;98041.78;4999907;28;20560;-69
2023/12/12 00:54:32;;;;;;;42.90;28.98;;;;;;;4.38;100.00;98068.75;5009895;28;20532;-71
2023/12/12 00:56:57;;;;;;;43.05;28.50;;;;;;;4.14;100.00;98004.56;5005037;28;20040;-72
2023/12/12 00:59:23;;;;;;;41.55;28.48;;;;;;;4.36;100.00;98047.47;4989772;28;20025;-70
2023/12/12 01:01:51;;;;;;;39.03;27.23;;;;;;;4.27;100.00;98081.66;5002141;28;20025;-70
2023/12/12 01:04:19;;;;;;;38.28;27.80;;;;;;;4.42;100.00;98085.63;4990776;28;20029;-70
2023/12/12 01:06:46;;;;;;;43.05;29.13;;;;;;;4.43;100.00;98085.50;4996901;28;20024;-71
2023/12/12 01:09:11;;;;;;;43.03;28.55;;;;;;;4.30;100.00;98084.00;5008625;28;20376;-71
2023/12/12 01:11:42;;;;;;;38.88;27.63;;;;;;;4.13;100.00;98062.94;4997322;28;20042;-70
2023/12/12 01:14:12;;;;;;;45.97;28.33;;;;;;;3.96;100.00;98073.69;5017067;28;20045;-71
2023/12/12 01:16:38;;;;;;;40.33;27.15;;;;;;;4.21;100.00;98096.63;5016186;28;20080;-69
2023/12/12 01:19:03;;;;;;;42.08;29.02;;;;;;;3.85;100.00;98075.31;4997957;28;20879;-68
2023/12/12 01:21:31;;;;;;;40.55;28.40;;;;;;;4.24;100.00;98116.16;5013261;28;20063;-72
2023/12/12 01:23:58;;;;;;;40.97;28.02;;;;;;;4.38;100.00;98103.06;5014833;28;20030;-70
2023/12/12 01:26:27;;;;;;;43.75;27.73;;;;;;;4.21;100.00;98093.22;5017503;28;20610;-71
2023/12/12 01:28:53;;;;;;;38.83;27.10;;;;;;;4.30;100.00;98081.41;5010731;28;20030;-69
2023/12/12 01:31:18;;;;;;;41.10;28.48;;;;;;;4.35;100.00;98058.72;4999595;28;20017;-70
2023/12/12 01:33:45;;;;;;;37.95;27.23;;;;;;;4.41;100.00;98053.09;4998152;28;20512;-71
2023/12/12 01:36:10;;;;;;;40.65;28.10;;;;;;;4.55;100.00;98052.03;5013385;28;20018;-67
2023/12/12 01:38:36;;;;;;;37.95;26.80;;;;;;;4.46;100.00;98050.16;4997472;28;20048;-70
2023/12/12 01:41:04;;;;;;;36.22;26.75;;;;;;;4.20;100.00;98020.38;5000813;28;20444;-68
2023/12/12 01:43:31;;;;;;;37.00;25.92;;;;;;;4.49;100.00;98062.78;5000341;28;20038;-72
2023/12/12 01:46:01;;;;;;;37.90;25.88;;;;;;;4.41;100.00;98065.97;4999278;28;20033;-72
2023/12/12 01:48:28;;;;;;;36.67;26.63;;;;;;;4.43;100.00;98100.97;5018464;28;20035;-70
2023/12/12 01:50:56;;;;;;;36.92;26.70;;;;;;;3.89;100.00;98073.34;5000779;28;20393;-68
2023/12/12 01:53:26;;;;;;;38.72;25.33;;;;;;;3.96;100.00;98128.53;4992070;28;20061;-71
2023/12/12 01:55:53;;;;;;;;;;;;;;;4.05;100.00;98145.03;5011205;28;20052;-69
2023/12/12 01:58:20;;;;;;;35.05;24.67;;;;;;;4.06;100.00;98120.13;5018830;28;19917;-73
2023/12/12 02:00:46;;;;;;;34.97;25.52;;;;;;;3.84;100.00;98107.13;5012378;28;20041;-71
2023/12/12 02:03:14;;;;;;;38.30;27.10;;;;;;;4.03;100.00;98113.44;5017075;28;20096;-69
2023/12/12 02:05:42;;;;;;;38.22;27.65;;;;;;;4.09;100.00;98117.31;4998440;28;20030;-69
2023/12/12 02:08:08;;;;;;;36.55;26.73;;;;;;;4.27;100.00;98133.97;5001902;28;20061;-72
2023/12/12 02:10:36;;;;;;;34.58;25.83;;;;;;;4.23;100.00;98109.38;5009605;28;20428;-72
2023/12/12 02:13:01;;;;;;;38.40;26.73;;;;;;;4.14;100.00;98112.63;4999158;28;20664;-70
2023/12/12 02:15:27;;;;;;;35.65;26.67;;;;;;;3.82;100.00;98065.25;5012306;28;20033;-72
2023/12/12 02:17:52;;;;;;;33.60;24.65;;;;;;;4.26;100.00;98098.84;5001012;28;20118;-71
2023/12/12 02:20:20;;;;;;;32.00;24.08;;;;;;;4.12;100.00;98074.16;4997903;28;20094;-71
2023/12/12 02:22:45;;;;;;;33.00;23.80;;;;;;;4.07;100.00;98045.41;5009420;28;20044;-69
2023/12/12 02:25:11;;;;;;;30.25;23.17;;;;;;;4.25;100.00;98097.19;5015492;28;20397;-71
2023/12/12 02:27:37;;;;;;;31.63;23.08;;;;;;;4.14;100.00;98090.28;5016294;28;20117;-70
2023/12/12 02:30:08;;;;;;;30.60;22.20;;;;;;;4.28;100.00;98084.09;5012817;28;20133;-73
2023/12/12 02:32:35;;;;;;;31.08;23.13;;;;;;;4.36;100.00;98086.91;5014078;28;20056;-71
2023/12/12 02:35:01;;;;;;;31.50;22.80;;;;;;;4.18;100.00;98085.72;4996818;28;20507;-72
2023/12/12 02:37:29;;;;;;;29.50;22.17;;;;;;;4.22;100.00;98103.41;4998046;28;20034;-71
2023/12/12 02:39:54;;;;;;;29.52;21.83;;;;;;;3.78;100.00;98115.31;5009580;28;20038;-70
2023/12/12 02:42:22;;;;;;;27.98;20.73;;;;;;;3.91;100.00;98092.06;5001258;28;20092;-69
2023/12/12 02:44:48;;;;;;;30.08;21.92;;;;;;;4.03;100.00;98080.84;5012288;28;20038;-69
2023/12/12 02:47:13;;;;;;;27.35;21.58;;;;;;;4.01;100.00;98074.16;5010309;28;20064;-69
2023/12/12 02:49:40;;;;;;;30.25;21.95;;;;;;;4.14;100.00;98063.75;5011825;28;20079;-74
2023/12/12 02:52:05;;;;;;;28.35;22.48;;;;;;;4.18;100.00;98034.25;5013098;28;20128;-71
2023/12/12 02:54:30;;;;;;;29.67;21.88;;;;;;;4.18;100.00;98019.66;5013534;28;20126;-71
2023/12/12 02:56:56;;;;;;;27.90;20.73;;;;;;;4.11;100.00;98018.50;5014081;28;20133;-73
2023/12/12 02:59:26;;;;;;;27.38;20.25;;;;;;;4.26;100.00;98041.41;5011422;28;20061;-71
2023/12/12 03:01:52;;;;;;;27.67;21.30;;;;;;;4.25;100.00;98040.56;4995597;28;20532;-71
2023/12/12 03:04:17;;;;;;;27.15;20.77;;;;;;;4.17;100.00;98048.91;4997644;28;20079;-72
2023/12/12 03:06:42;;;;;;;28.88;20.55;;;;;;;3.89;100.00;98006.47;5000729;28;20017;-72
2023/12/12 03:09:10;;;;;;;27.35;19.67;;;;;;;4.11;100.00;98064.81;4998869;28;20060;-71
2023/12/12 03:11:38;;;;;;;25.88;19.83;;;;;;;4.01;100.00;98067.25;5008326;28;20030;-68
2023/12/12 03:14:06;;;;;;;25.35;20.30;;;;;;;3.72;100.00;98069.44;5014102;28;20029;-68
2023/12/12 03:16:34;;;;;;;28.10;21.42;;;;;;;3.85;100.00;98069.34;4999753;28;20056;-73
2023/12/12 03:18:59;;;;;;;31.05;21.02;;;;;;;3.77;100.00;98067.34;5037553;28;20529;-70
2023/12/12 03:21:27;;;;;;;25.48;19.05;;;;;;;3.69;100.00;98051.69;5007423;28;20033;-73
2023/12/12 03:23:53;;;;;;;28.58;20.00;;;;;;;3.99;100.00;98076.03;5000060;28;20037;-70
2023/12/12 03:26:23;;;;;;;27.38;20.83;;;;;;;3.75;100.00;98089.81;5000185;28;20033;-67
2023/12/12 03:28:51;;;;;;;29.10;20.83;;;;;;;3.80;100.00;98092.03;5007526;28;20068;-69
2023/12/12 03:31:19;;;;;;;25.98;20.63;;;;;;;3.72;100.00;98096.91;5009598;28;20026;-73
2023/12/12 03:33:46;;;;;;;28.20;19.65;;;;;;;3.79;100.00;98090.38;4993016;28;20481;-73
2023/12/12 03:36:14;;;;;;;28.85;20.42;;;;;;;3.94;100.00;98085.84;4994184;28;20026;-70
2023/12/12 03:38:42;;;;;;;25.02;19.00;;;;;;;3.97;100.00;98075.34;5009775;28;20025;-71
2023/12/12 03:41:07;;;;;;;27.35;21.30;;;;;;;4.01;100.00;98080.13;5012357;28;20033;-67
2023/12/12 03:43:33;;;;;;;30.38;20.45;;;;;;;4.06;100.00;98072.06;4992287;28;20041;-71
2023/12/12 03:46:00;;;;;;;26.45;19.83;;;;;;;3.82;100.00;98067.84;5013010;28;20029;-71
2023/12/12 03:48:26;;;;;;;27.33;19.60;;;;;;;3.39;100.00;98011.09;5011257;28;20026;-68
2023/12/12 03:50:53;;;;;;;26.30;19.83;;;;;;;3.75;100.00;98028.09;5014198;28;20017;-70
2023/12/12 03:53:19;;;;;;;28.23;19.48;;;;;;;3.42;100.00;98000.59;4986756;28;20059;-69
2023/12/12 03:55:47;;;;;;;25.45;19.80;;;;;;;3.81;100.00;98039.66;4994426;28;20025;-73
2023/12/12 03:58:14;;;;;;;27.70;20.90;;;;;;;3.95;100.00;98029.16;5006968;28;20123;-70
2023/12/12 04:00:42;;;;;;;28.40;21.38;;;;;;;3.90;100.00;98044.09;4994336;28;20175;-71
2023/12/12 04:03:10;;;;;;;27.73;20.50;;;;;;;3.92;100.00;98083.38;5008152;28;20062;-70
2023/12/12 04:05:35;;;;;;;27.50;20.27;;;;;;;3.94;100.00;98081.53;5011152;28;20076;-71
2023/12/12 04:08:01;;;;;;;28.25;20.10;;;;;;;3.81;100.00;98067.94;5011480;28;20509;-70
2023/12/12 04:10:29;;;;;;;27.13;20.02;;;;;;;3.90;100.00;98064.69;5013094;28;20037;-74
2023/12/12 04:12:56;;;;;;;27.63;20.02;;;;;;;4.00;100.00;98073.34;5012741;28;20037;-71
2023/12/12 04:15:22;;;;;;;29.10;20.45;;;;;;;4.10;100.00;98075.22;5010134;28;20404;-71
2023/12/12 04:17:50;;;;;;;29.23;20.63;;;;;;;4.03;100.00;98082.56;5002105;28;20035;-71
2023/12/12 04:20:15;;;;;;;24.85;18.95;;;;;;;3.82;100.00;98015.59;4996822;28;20096;-71
2023/12/12 04:22:43;;;;;;;26.70;20.50;;;;;;;4.01;100.00;98064.69;5004748;28;20115;-71
2023/12/12 04:25:11;;;;;;;25.38;18.98;;;;;;;3.69;100.00;98059.41;5007473;28;20091;-71
2023/12/12 04:27:39;;;;;;;27.15;19.52;;;;;;;3.91;100.00;98055.22;4989634;28;20053;-71
2023/12/12 04:30:05;;;;;;;24.45;18.13;;;;;;;3.93;100.00;98063.66;4995745;28;20132;-71
2023/12/12 04:32:31;;;;;;;25.15;18.35;;;;;;;3.95;100.00;98057.44;5007712;28;20033;-68
2023/12/12 04:34:57;;;;;;;25.45;18.70;;;;;;;3.84;100.00;98060.81;4997248;28;20123;-69
2023/12/12 04:37:25;;;;;;;24.17;18.67;;;;;;;3.90;100.00;98071.59;5012920;28;20033;-71
2023/12/12 04:39:50;;;;;;;25.70;18.65;;;;;;;3.60;100.00;98042.91;4993835;28;20172;-73
2023/12/12 04:42:15;;;;;;;27.90;19.52;;;;;;;3.69;100.00;98050.84;5011365;28;20432;-70
2023/12/12 04:44:44;;;;;;;25.67;18.08;;;;;;;4.03;100.00;98078.28;4989268;28;20118;-72
2023/12/12 04:47:09;;;;;;;23.73;18.13;;;;;;;4.09;100.00;98066.69;4999676;28;20025;-72
2023/12/12 04:49:37;;;;;;;25.48;18.58;;;;;;;4.08;100.00;98064.22;4994860;28;20341;-69
2023/12/12 04:52:05;;;;;;;25.95;17.60;;;;;;;4.08;100.00;98056.50;5010806;28;20081;-72
2023/12/12 04:54:33;;;;;;;27.08;19.45;;;;;;;4.07;100.00;98065.16;5019348;28;20056;-71
2023/12/12 04:57:02;;;;;;;24.13;18.83;;;;;;;4.07;100.00;98047.97;4996175;28;20022;-73
2023/12/12 04:59:28;;;;;;;24.52;17.98;;;;;;;4.17;100.00;98066.09;4997285;28;20483;-72
2023/12/12 05:01:53;;;;;;;26.05;17.85;;;;;;;4.15;100.00;98081.66;5011006;28;20029;-68
2023/12/12 05:04:19;;;;;;;23.52;17.25;;;;;;;3.88;100.00;98081.97;5017538;28;20033;-70
2023/12/12 05:06:49;;;;;;;23.80;17.88;;;;;;;3.88;100.00;98094.03;5007551;28;20103;-70
2023/12/12 05:09:14;;;;;;;23.33;17.63;;;;;;;3.49;100.00;98057.47;4993434;28;20136;-73
2023/12/12 05:11:40;;;;;;;26.75;18.65;;;;;;;3.83;100.00;98089.22;4995021;28;20983;-71
2023/12/12 05:14:06;;;;;;;27.05;19.10;;;;;;;3.66;100.00;98042.44;5010386;28;20036;-70
2023/12/12 05:16:33;;;;;;;26.80;19.30;;;;;;;3.89;100.00;98093.91;4997985;28;20022;-74
2023/12/12 05:18:58;;;;;;;34.38;26.25;;;;;;;4.04;100.00;98115.91;4997186;28;20570;-75
2023/12/12 05:21:28;;;;;;;34.75;26.83;;;;;;;4.16;100.00;98110.75;5010330;28;20064;-70
2023/12/12 05:23:53;;;;;;;35.90;26.65;;;;;;;4.15;100.00;98109.97;4995342;28;21151;-69
2023/12/12 05:26:21;;;;;;;28.50;20.30;;;;;;;4.16;100.00;98114.19;5011718;28;20116;-74
2023/12/12 05:28:50;;;;;;;24.13;17.90;;;;;;;4.31;100.00;98140.50;5012613;28;20033;-72
2023/12/12 05:31:15;;;;;;;25.25;18.15;;;;;;;4.29;100.00;98154.41;5018377;28;20125;-73
2023/12/12 05:33:41;;;;;;;23.92;17.27;;;;;;;4.20;100.00;98166.25;5014126;28;20021;-73
2023/12/12 05:36:06;;;;;;;22.63;16.92;;;;;;;4.28;100.00;98158.75;5010533;28;20026;-70
2023/12/12 05:38:34;;;;;;;22.88;17.73;;;;;;;4.20;100.00;98148.22;4993077;28;20559;-72
2023/12/12 05:41:06;;;;;;;23.55;17.02;;;;;;;4.35;100.00;98138.50;4996246;28;20069;-75
2023/12/12 05:43:31;;;;;;;26.20;18.15;;;;;;;4.44;100.00;98127.50;5011756;28;20030;-71
2023/12/12 05:45:57;;;;;;;27.35;18.55;;;;;;;4.49;100.00;98128.00;5006821;28;20137;-72
2023/12/12 05:48:24;;;;;;;23.85;16.10;;;;;;;4.50;100.00;98128.78;5001855;28;20226;-72
2023/12/12 05:50:50;;;;;;;28.10;17.38;;;;;;;4.56;100.00;98136.03;4997329;28;20045;-74
2023/12/12 05:53:18;;;;;;;26.85;18.58;;;;;;;4.55;100.00;98139.56;5026885;28;20504;-72
2023/12/12 05:55:43;;;;;;;26.42;18.95;;;;;;;4.54;100.00;98132.75;4999732;28;20091;-70
2023/12/12 05:58:11;;;;;;;25.40;17.23;;;;;;;4.50;100.00;98121.88;5015922;28;20103;-71
2023/12/12 06:00:36;;;;;;;24.20;16.77;;;;;;;4.57;100.00;98127.38;5009347;28;20040;-70
2023/12/12 06:03:02;;;;;;;24.38;17.75;;;;;;;4.70;100.00;98119.53;4997441;28;20045;-68
2023/12/12 06:05:27;;;;;;;24.73;17.85;;;;;;;4.75;100.00;98128.53;5014213;28;20034;-74
2023/12/12 06:07:55;;;;;;;28.35;18.33;;;;;;;4.53;100.00;98105.41;5026179;28;20044;-74
2023/12/12 06:10:20;;;;;;;29.13;19.67;;;;;;;4.75;100.00;98132.88;5000247;28;20017;-71
2023/12/12 06:12:46;;;;;;;31.38;23.27;;;;;;;4.75;100.00;98138.84;4997501;28;20798;-72
2023/12/12 06:15:11;;;;;;;28.27;20.05;;;;;;;4.67;100.00;98140.34;4999588;28;20026;-71
2023/12/12 06:17:40;;;;;;;23.90;17.92;;;;;;;4.65;100.00;98130.16;5013167;28;20279;-71
2023/12/12 06:20:09;;;;;;;26.65;19.08;;;;;;;4.77;100.00;98131.00;5012707;28;20064;-72
2023/12/12 06:22:34;;;;;;;27.67;19.08;;;;;;;4.81;100.00;98111.78;4998918;28;20021;-70
2023/12/12 06:25:00;;;;;;;27.52;17.88;;;;;;;4.90;100.00;98129.09;5007114;28;20743;-72
2023/12/12 06:27:25;;;;;;;26.25;18.58;;;;;;;5.09;100.00;98146.50;5001744;28;20029;-69
2023/12/12 06:29:53;;;;;;;25.70;18.35;;;;;;;4.92;100.00;98159.88;4995936;28;20062;-69
2023/12/12 06:32:19;;;;;;;21.35;16.30;;;;;;;4.80;100.00;98131.56;4991589;28;20099;-71
2023/12/12 06:34:45;;;;;;;20.88;13.73;;;;;;;5.05;100.00;98185.50;4995866;28;20279;-73
2023/12/12 06:37:10;;;;;;;20.10;14.10;;;;;;;4.97;100.00;98170.66;4995472;28;20581;-71
2023/12/12 06:39:36;;;;;;;19.67;13.98;;;;;;;5.03;100.00;98156.47;5017445;28;20116;-72
2023/12/12 06:42:02;;;;;;;21.02;14.57;;;;;;;5.20;100.00;98158.53;5013116;28;20045;-72
2023/12/12 06:44:30;;;;;;;23.30;15.07;;;;;;;4.95;100.00;98108.94;5009069;28;20463;-68
2023/12/12 06:46:55;;;;;;;22.60;14.32;;;;;;;5.32;100.00;98147.25;5031560;28;21303;-71
2023/12/12 06:49:23;;;;;;;23.33;15.73;;;;;;;5.33;100.00;98142.88;5010055;28;20025;-70
2023/12/12 06:51:51;;;;;;;23.92;15.80;;;;;;;5.32;100.00;98136.13;4995942;28;20068;-69
2023/12/12 06:54:16;;;;;;;22.75;15.30;;;;;;;5.17;100.00;98108.03;5011607;28;20080;-72
2023/12/12 06:56:44;;;;;;;21.23;15.18;;;;;;;5.27;100.00;98105.53;5008266;28;20025;-72
2023/12/12 06:59:12;;;;;;;19.95;14.18;;;;;;;5.47;100.00;98168.38;5014023;28;20072;-71
2023/12/12 07:01:38;;;;;;;23.17;15.18;;;;;;;5.43;100.00;98158.47;5016555;28;20031;-70
2023/12/12 07:04:04;;;;;;;20.90;14.32;;;;;;;5.36;100.00;98135.72;5006096;28;20029;-70
2023/12/12 07:06:29;;;;;;;21.98;14.07;;;;;;;5.69;100.00;98166.66;4992248;28;20393;-65
2023/12/12 07:08:57;;;;;;;20.00;14.82;;;;;;;5.74;100.00;98167.91;5012021;28;20196;-67
2023/12/12 07:11:25;;;;;;;22.38;14.85;;;;;;;5.86;100.00;98173.84;4996071;28;20033;-72
2023/12/12 07:13:53;;;;;;;24.10;15.75;;;;;;;5.88;100.00;98169.38;5010510;28;20038;-72
2023/12/12 07:16:18;;;;;;;21.33;15.35;;;;;;;5.97;100.00;98184.16;5010255;28;20034;-71
2023/12/12 07:18:44;;;;;;;21.10;15.02;;;;;;;6.01;100.00;98184.72;5013092;28;20083;-72
2023/12/12 07:21:09;;;;;;;20.00;14.55;;;;;;;5.99;100.00;98167.69;5004914;28;20021;-71
2023/12/12 07:23:34;;;;;;;19.38;14.30;;;;;;;6.00;100.00;98161.59;4998161;28;20815;-67
2023/12/12 07:26:03;;;;;;;17.10;12.82;;;;;;;5.92;100.00;98157.06;4990472;28;20030;-70
2023/12/12 07:28:33;;;;;;;19.58;13.77;;;;;;;6.01;100.00;98153.75;5014602;28;20033;-70
2023/12/12 07:30:58;;;;;;;19.90;13.13;;;;;;;5.73;100.00;98088.06;5012049;28;20031;-72
2023/12/12 07:33:24;;;;;;;17.40;12.63;;;;;;;5.96;100.00;98137.81;5010202;28;20479;-70
2023/12/12 07:35:49;;;;;;;19.65;12.80;;;;;;;5.93;100.00;98133.72;5013340;28;20420;-72
2023/12/12 07:38:16;;;;;;;20.75;13.80;;;;;;;5.98;100.00;98141.09;5007471;28;20551;-70
2023/12/12 07:40:41;;;;;;;18.38;12.82;;;;;;;6.09;100.00;98148.75;4999502;28;20021;-69
2023/12/12 07:43:07;;;;;;;19.75;13.32;;;;;;;6.11;100.00;98153.78;4991069;28;20059;-69
2023/12/12 07:45:32;;;;;;;19.13;13.88;;;;;;;6.16;100.00;98143.91;5010054;28;20029;-71
2023/12/12 07:48:00;;;;;;;19.35;12.80;;;;;;;6.14;100.00;98138.06;5022127;28;20038;-68
2023/12/12 07:50:25;;;;;;;19.02;12.32;;;;;;;6.18;100.00;98142.00;5005436;28;20065;-70
2023/12/12 07:52:51;;;;;;;19.13;13.75;;;;;;;6.20;100.00;98132.38;4996814;28;20033;-70
2023/12/12 07:55:16;;;;;;;17.83;12.25;;;;;;;6.04;100.00;98140.59;4993603;28;20721;-72
2023/12/12 07:57:41;;;;;;;19.08;13.43;;;;;;;5.59;100.00;98149.34;5010879;28;20030;-72
2023/12/12 08:00:09;;;;;;;18.77;13.02;;;;;;;5.65;100.00;98157.53;5017583;28;20022;-71
2023/12/12 08:02:35;;;;;;;20.63;13.30;;;;;;;5.70;100.00;98188.94;5012112;28;20043;-73
2023/12/12 08:05:01;;;;;;;21.17;13.25;;;;;;;5.83;100.00;98199.09;5009252;28;20026;-71
2023/12/12 08:07:29;;;;;;;21.05;13.70;;;;;;;5.98;100.00;98205.59;4995108;28;20096;-72
2023/12/12 08:09:55;;;;;;;19.60;13.48;;;;;;;6.08;100.00;98218.59;5027151;28;20421;-68
2023/12/12 08:12:23;;;;;;;19.13;13.13;;;;;;;6.14;100.00;98230.97;5019439;28;20489;-73
2023/12/12 08:14:49;;;;;;;19.02;12.90;;;;;;;6.24;100.00;98234.47;5026576;28;20033;-69
2023/12/12 08:17:14;;;;;;;19.83;13.57;;;;;;;6.08;100.00;98205.69;5007879;28;20037;-69
2023/12/12 08:19:40;;;;;;;18.33;13.48;;;;;;;6.33;100.00;98240.59;4997405;28;21593;-70
2023/12/12 08:22:08;;;;;;;17.63;13.07;;;;;;;6.31;100.00;98227.81;5010104;28;20037;-72
2023/12/12 08:24:37;;;;;;;19.98;13.30;;;;;;;6.24;100.00;98241.38;5007949;28;20021;-72
2023/12/12 08:27:02;;;;;;;20.63;13.10;;;;;;;6.31;100.00;98242.50;5027612;28;20029;-69
2023/12/12 08:29:27;;;;;;;18.27;13.13;;;;;;;6.29;100.00;98236.66;5016670;28;20057;-70
2023/12/12 08:31:53;;;;;;;18.10;13.38;;;;;;;6.42;100.00;98239.84;4998823;28;20025;-70
2023/12/12 08:34:18;;;;;;;20.60;13.57;;;;;;;6.51;100.00;98238.25;5015822;28;20033;-69
2023/12/12 08:36:44;;;;;;;17.58;13.30;;;;;;;6.51;100.00;98223.56;4999424;28;20409;-71
2023/12/12 08:39:09;;;;;;;19.67;13.07;;;;;;;6.45;100.00;98212.97;5009780;28;20030;-72
2023/12/12 08:41:37;;;;;;;18.63;12.90;;;;;;;6.49;100.00;98217.72;5004715;28;21305;-68
2023/12/12 08:44:07;;;;;;;17.38;12.93;;;;;;;6.35;100.00;98226.63;5026779;28;20042;-73
2023/12/12 08:46:33;;;;;;;19.45;12.85;;;;;;;6.46;100.00;98224.91;4998696;28;20560;-71
2023/12/12 08:48:58;;;;;;;18.60;13.77;;;;;;;6.52;100.00;98227.00;5022858;28;20024;-74
2023/12/12 08:51:25;;;;;;;19.25;13.65;;;;;;;6.66;100.00;98215.50;4996374;28;20033;-71
2023/12/12 08:53:51;;;;;;;19.65;13.75;;;;;;;6.36;100.00;98173.22;5014773;28;20050;-71
2023/12/12 08:56:21;;;;;;;19.25;13.07;;;;;;;6.49;100.00;98209.16;4997068;28;20032;-72
2023/12/12 08:58:51;;;;;;;19.90;13.77;;;;;;;6.48;100.00;98204.94;5012864;28;20184;-72
2023/12/12 09:01:20;;;;;;;18.45;13.40;;;;;;;6.52;100.00;98212.31;4996908;28;20021;-72
2023/12/12 09:03:46;;;;;;;17.40;13.13;;;;;;;6.45;100.00;98202.63;5008417;28;20033;-70
2023/12/12 09:06:11;;;;;;;18.73;13.68;;;;;;;6.56;100.00;98192.22;5015123;28;20396;-69
2023/12/12 09:08:43;;;;;;;20.25;13.18;;;;;;;6.50;100.00;98184.97;5012215;28;20025;-69
2023/12/12 09:11:12;;;;;;;15.90;12.35;;;;;;;6.39;100.00;98183.31;4994635;28;20778;-72
2023/12/12 09:13:38;;;;;;;18.00;13.20;;;;;;;6.51;100.00;98186.59;5009400;28;20496;-69
2023/12/12 09:16:06;;;;;;;21.10;14.27;;;;;;;6.40;100.00;98182.34;4995504;28;20033;-69
2023/12/12 09:18:32;;;;;;;20.05;13.82;;;;;;;6.42;100.00;98169.31;5014147;28;20064;-71
2023/12/12 09:20:57;;;;;;;19.98;14.02;;;;;;;6.41;100.00;98172.84;4998295;28;20737;-71
2023/12/12 09:23:27;;;;;;;20.23;14.15;;;;;;;6.46;100.00;98181.00;4997696;28;20400;-70
2023/12/12 09:25:53;;;;;;;19.90;13.10;;;;;;;6.45;100.00;98193.09;4996265;28;20397;-71
2023/12/12 09:28:18;;;;;;;19.80;14.40;;;;;;;6.39;100.00;98197.94;4991258;28;20032;-69
2023/12/12 09:30:44;;;;;;;19.38;13.45;;;;;;;6.00;100.00;98154.69;4998366;28;20120;-70
2023/12/12 09:33:09;;;;;;;20.63;13.93;;;;;;;6.14;100.00;98207.75;4996238;28;20090;-71
2023/12/12 09:35:38;;;;;;;20.48;13.93;;;;;;;6.14;100.00;98213.72;5001002;28;20043;-72
2023/12/12 09:38:05;;;;;;;21.45;14.82;;;;;;;6.19;100.00;98222.84;5012953;28;20034;-73
2023/12/12 09:40:35;;;;;;;21.50;14.88;;;;;;;6.13;100.00;98242.25;4995174;28;20022;-70
2023/12/12 09:43:04;;;;;;;20.38;14.73;;;;;;;6.15;100.00;98255.84;5010495;28;20713;-71
2023/12/12 09:45:31;;;;;;;22.38;14.98;;;;;;;5.87;100.00;98203.88;4996375;28;20398;-70
2023/12/12 09:47:56;;;;;;;22.58;15.25;;;;;;;6.12;100.00;98214.81;5018964;28;20045;-69
2023/12/12 09:50:27;;;;;;;19.42;14.27;;;;;;;6.35;100.00;98199.97;5012501;28;20033;-70
2023/12/12 09:52:53;;;;;;;19.83;14.85;;;;;;;6.31;100.00;98199.41;4989552;28;20033;-73
2023/12/12 09:55:23;;;;;;;26.58;14.75;;;;;;;6.38;100.00;98204.09;4998545;28;20049;-72
2023/12/12 09:57:48;;;;;;;19.58;14.20;;;;;;;6.39;100.00;98182.47;5007565;28;20072;-72
2023/12/12 10:00:18;;;;;;;20.85;14.75;;;;;;;6.45;100.00;98180.19;5007529;28;20160;-72
2023/12/12 10:02:43;;;;;;;20.88;14.82;;;;;;;6.59;100.00;98166.13;5003265;28;20041;-71
2023/12/12 10:05:12;;;;;;;21.50;15.13;;;;;;;6.38;100.00;98140.34;4993859;28;20030;-70
2023/12/12 10:07:42;;;;;;;22.38;15.20;;;;;;;6.76;100.00;98177.59;4996415;28;20038;-69
2023/12/12 10:10:12;;;;;;;21.60;14.50;;;;;;;6.52;100.00;98127.06;5006098;28;20042;-69
2023/12/12 10:12:37;;;;;;;22.83;15.50;;;;;;;6.74;100.00;98176.91;5018995;28;20036;-70
2023/12/12 10:15:03;;;;;;;21.63;14.45;;;;;;;6.58;100.00;98179.97;5019209;28;20026;-70
2023/12/12 10:17:37;;;;;;;20.83;15.13;;;;;;;6.59;100.00;98196.28;5018152;28;20551;-71
2023/12/12 10:20:03;;;;;;;20.27;14.55;;;;;;;6.53;100.00;98188.13;5013217;28;20558;-71
2023/12/12 10:22:32;;;;;;;21.13;14.63;;;;;;;6.45;100.00;98177.63;5000626;28;20044;-71
2023/12/12 10:25:11;;;;;;;22.67;15.80;;;;;;;6.40;100.00;98158.28;5015231;28;20036;-72
2023/12/12 10:27:49;;;;;;;21.63;15.15;;;;;;;6.53;100.00;98144.22;4997775;28;20034;-71
2023/12/12 10:30:15;;;;;;;21.05;14.82;;;;;;;6.67;100.00;98140.44;5013835;28;20045;-70
2023/12/12 10:32:40;;;;;;;20.10;13.90;;;;;;;6.69;100.00;98133.38;4995710;28;20460;-71
2023/12/12 10:35:06;;;;;;;20.52;14.70;;;;;;;6.66;100.00;98107.81;4994020;28;20026;-70
2023/12/12 10:37:32;;;;;;;19.30;15.45;;;;;;;6.93;100.00;98130.44;4997095;28;20060;-71
2023/12/12 10:40:33;;;;;;;20.67;15.52;;;;;;;7.09;100.00;98135.09;5016857;28;20128;-72
2023/12/12 10:42:59;;;;;;;23.40;15.00;;;;;;;7.04;100.00;98137.25;4995612;28;20045;-70
2023/12/12 10:45:26;;;;;;;21.55;14.93;;;;;;;7.08;100.00;98148.13;4996206;28;20599;-71
2023/12/12 10:47:55;;;;;;;21.40;15.05;;;;;;;6.62;100.00;98092.69;5001566;28;20041;-68
2023/12/12 10:50:21;;;;;;;20.05;14.45;;;;;;;6.84;100.00;98133.00;5011907;28;20034;-69
2023/12/12 10:52:49;;;;;;;21.83;15.07;;;;;;;6.79;100.00;98122.25;5018688;28;20030;-71
2023/12/12 10:55:18;;;;;;;19.50;14.90;;;;;;;6.83;100.00;98129.59;4989853;28;20545;-72
2023/12/12 10:57:44;;;;;;;;;;;;;;;6.93;100.00;98134.78;4987600;28;20757;-70
2023/12/12 11:00:17;;;;;;;18.60;13.43;;;;;;;7.03;100.00;98124.47;4987999;28;19921;-73
2023/12/12 11:02:45;;;;;;;21.35;14.57;;;;;;;6.77;100.00;98075.84;4974857;28;20091;-70
2023/12/12 11:05:12;;;;;;;19.52;13.93;;;;;;;7.18;100.00;98124.91;4980402;28;20084;-72
2023/12/12 11:07:39;;;;;;;20.42;14.23;;;;;;;7.11;100.00;98135.75;4978805;28;20683;-72
2023/12/12 11:10:06;;;;;;;18.42;14.18;;;;;;;7.05;100.00;98143.25;4977944;28;20092;-67
2023/12/12 11:12:33;;;;;;;19.20;13.57;;;;;;;7.06;100.00;98140.53;4972469;28;20131;-71
2023/12/12 11:15:04;;;;;;;21.73;14.80;;;;;;;7.21;100.00;98140.97;4992056;28;20345;-69